Time;durP1;ratioP1;P1;durP2;ratioP2;P2;SDS_P1;SDS_P2;PMS_P1;PMS_P2;Temp;Humidity;BMP_temperature;BMP_pressure;BME280_temperature;BME280_humidity;BME280_pressure;Samples;Min_cycle;Max_cycle;Signal;HPM_P1;HPM_P2
2024/01/10 00:02:21;;;;;;;4.53;2.53;;;29.70;99.90;;;;;;4974358;28;20664;-69
2024/01/10 00:04:49;;;;;;;7.70;2.77;;;30.20;99.90;;;;;;4974215;28;20278;-70
2024/01/10 00:07:16;;;;;;;6.63;2.37;;;30.30;99.90;;;;;;4974325;28;20183;-72
2024/01/10 00:09:45;;;;;;;7.00;2.63;;;29.80;99.90;;;;;;4981998;28;20229;-72
2024/01/10 00:12:13;;;;;;;8.83;2.70;;;29.70;99.90;;;;;;4993425;28;20234;-70
2024/01/10 00:14:41;;;;;;;7.43;3.23;;;30.00;99.90;;;;;;4978642;28;20190;-68
2024/01/10 00:17:08;;;;;;;6.87;3.40;;;29.80;99.90;;;;;;4976002;28;20222;-74
2024/01/10 00:19:36;;;;;;;8.27;2.93;;;29.60;99.90;;;;;;4978133;28;20190;-73
2024/01/10 00:22:05;;;;;;;7.20;2.70;;;29.50;99.90;;;;;;4975993;28;20191;-73
2024/01/10 00:24:33;;;;;;;5.67;3.00;;;29.30;99.90;;;;;;4984041;28;20195;-70
2024/01/10 00:37:06;;;;;;;8.77;3.93;;;31.50;99.90;;;;;;4969221;28;20230;-76
2024/01/10 00:39:34;;;;;;;13.70;4.20;;;31.80;99.90;;;;;;4992942;28;20179;-74
2024/01/10 00:42:02;;;;;;;9.63;3.67;;;32.00;99.90;;;;;;4992974;28;20210;-75
2024/01/10 00:44:30;;;;;;;6.70;4.22;;;32.30;99.90;;;;;;4984250;28;20223;-70
2024/01/10 00:46:57;;;;;;;10.25;4.40;;;32.50;99.90;;;;;;4991735;28;20274;-77
2024/01/10 00:49:25;;;;;;;10.00;4.45;;;32.40;99.90;;;;;;4982345;28;20186;-73
2024/01/10 00:51:53;;;;;;;17.25;4.03;;;32.50;99.90;;;;;;4992997;28;20191;-72
2024/01/10 00:54:20;;;;;;;9.80;4.05;;;32.60;99.90;;;;;;4992958;28;20191;-73
2024/01/10 00:56:50;;;;;;;9.20;3.97;;;32.60;99.90;;;;;;4992213;28;20644;-76
2024/01/10 01:02:40;;;;;;;8.65;4.13;;;32.60;99.90;;;;;;4973083;28;20249;-75
2024/01/10 01:05:08;;;;;;;6.22;3.80;;;33.10;99.90;;;;;;4978941;28;20256;-74
2024/01/10 01:07:36;;;;;;;7.72;4.28;;;33.30;99.90;;;;;;4991107;28;20193;-72
2024/01/10 01:10:04;;;;;;;7.53;4.28;;;33.30;99.90;;;;;;4985347;28;20185;-69
2024/01/10 01:12:32;;;;;;;6.53;3.88;;;33.30;99.90;;;;;;4984213;28;20186;-74
2024/01/10 01:14:59;;;;;;;24.00;4.88;;;33.20;99.90;;;;;;4987369;28;20214;-75
2024/01/10 01:17:27;;;;;;;18.88;5.47;;;32.30;99.90;;;;;;4973431;28;20214;-75
2024/01/10 01:19:55;;;;;;;9.30;4.68;;;32.00;99.90;;;;;;4973970;28;20215;-73
2024/01/10 01:22:23;;;;;;;9.35;4.20;;;31.50;99.90;;;;;;4973038;28;20179;-72
2024/01/10 01:24:50;;;;;;;27.55;6.93;;;32.00;99.90;;;;;;4983032;28;20248;-74
2024/01/10 01:27:18;;;;;;;8.07;4.05;;;32.20;99.90;;;;;;4992153;28;20317;-69
2024/01/10 01:29:46;;;;;;;20.58;5.28;;;32.40;99.90;;;;;;4992391;28;20190;-71
2024/01/10 01:32:14;;;;;;;7.47;4.85;;;32.10;99.90;;;;;;4978272;28;20195;-68
2024/01/10 01:34:42;;;;;;;10.05;4.53;;;31.30;99.90;;;;;;4977785;28;20205;-75
2024/01/10 01:37:09;;;;;;;8.13;4.75;;;31.50;99.90;;;;;;4992223;28;20218;-75
2024/01/10 01:39:37;;;;;;;8.73;4.20;;;32.30;99.90;;;;;;4991921;28;20182;-71
2024/01/10 01:42:05;;;;;;;7.32;4.90;;;33.00;99.90;;;;;;4979664;28;20708;-69
2024/01/10 01:44:33;;;;;;;6.50;4.03;;;33.50;99.90;;;;;;4981578;28;20227;-74
2024/01/10 01:47:01;;;;;;;26.55;7.75;;;33.70;99.90;;;;;;4980252;28;20213;-72
2024/01/10 01:49:30;;;;;;;13.60;4.70;;;33.40;99.90;;;;;;4992051;28;20584;-77
2024/01/10 01:51:59;;;;;;;7.22;4.18;;;32.70;99.90;;;;;;4992207;28;20632;-75
2024/01/10 01:54:27;;;;;;;5.57;4.05;;;32.20;99.90;;;;;;4976143;28;20195;-77
2024/01/10 01:56:55;;;;;;;10.43;4.53;;;32.70;99.90;;;;;;4972698;28;20218;-75
2024/01/10 01:59:24;;;;;;;6.45;3.83;;;33.10;99.90;;;;;;4989975;28;20179;-75
2024/01/10 02:01:58;;;;;;;7.35;4.15;;;33.10;99.90;;;;;;4999213;28;20237;-74
2024/01/10 02:04:27;;;;;;;7.22;4.35;;;32.50;99.90;;;;;;4980824;28;20217;-74
2024/01/10 02:06:55;;;;;;;8.75;4.82;;;31.90;99.90;;;;;;4992178;28;20584;-77
2024/01/10 02:09:22;;;;;;;7.00;4.20;;;32.90;99.90;;;;;;4984008;28;20261;-75
2024/01/10 02:11:50;;;;;;;10.60;4.28;;;33.70;99.90;;;;;;4972665;28;20195;-73
2024/01/10 02:14:18;;;;;;;4.57;3.72;;;34.00;99.90;;;;;;4977090;28;20178;-72
2024/01/10 02:16:46;;;;;;;5.93;3.85;;;34.10;99.90;;;;;;4988332;28;20271;-75
2024/01/10 02:19:32;;;;;;;13.95;4.55;;;34.30;99.90;;;;;;4972623;28;20185;-75
2024/01/10 02:21:59;;;;;;;10.23;4.32;;;34.20;99.90;;;;;;4973426;28;20198;-76
2024/01/10 02:24:27;;;;;;;10.45;4.75;;;34.00;99.90;;;;;;4988333;28;20190;-75
2024/01/10 02:26:55;;;;;;;6.03;4.53;;;34.20;99.90;;;;;;4979098;28;20241;-75
2024/01/10 02:29:24;;;;;;;5.72;4.18;;;34.30;99.90;;;;;;4986981;28;20205;-76
2024/01/10 02:35:13;;;;;;;33.80;7.68;;;34.50;99.90;;;;;;4991594;28;20186;-70
2024/01/10 02:37:41;;;;;;;12.55;4.22;;;34.80;99.90;;;;;;4981572;28;20250;-71
2024/01/10 02:40:09;;;;;;;5.85;3.88;;;34.90;99.90;;;;;;4972360;28;20179;-76
2024/01/10 02:42:37;;;;;;;5.70;3.90;;;35.20;99.90;;;;;;4972119;28;20171;-70
2024/01/10 02:45:05;;;;;;;8.30;4.43;;;35.00;99.90;;;;;;4972206;28;20235;-72
2024/01/10 02:47:33;;;;;;;9.20;5.13;;;34.60;99.90;;;;;;4979793;28;20273;-72
2024/01/10 02:50:01;;;;;;;6.00;3.90;;;34.70;99.90;;;;;;4991647;28;20179;-69
2024/01/10 02:52:28;;;;;;;8.02;4.40;;;34.20;99.90;;;;;;4991638;28;20175;-75
2024/01/10 02:54:56;;;;;;;7.68;4.80;;;33.90;99.90;;;;;;4991599;28;20186;-77
2024/01/10 03:00:45;;;;;;;6.78;4.00;;;34.50;99.90;;;;;;4972139;28;20195;-75
2024/01/10 03:03:13;;;;;;;8.20;4.72;;;34.60;99.90;;;;;;4972177;28;20171;-76
2024/01/10 03:05:41;;;;;;;5.53;4.35;;;34.80;99.90;;;;;;4988671;28;20205;-76
2024/01/10 03:08:09;;;;;;;9.88;5.47;;;34.30;99.90;;;;;;4981602;28;20206;-77
2024/01/10 03:10:37;;;;;;;15.27;4.57;;;34.50;99.90;;;;;;4972260;28;20183;-76
2024/01/10 03:13:04;;;;;;;7.10;4.85;;;34.70;99.90;;;;;;4973277;28;20180;-70
2024/01/10 03:15:32;;;;;;;9.40;5.00;;;34.10;99.90;;;;;;4974240;28;20616;-75
2024/01/10 03:18:00;;;;;;;6.40;4.20;;;33.40;99.90;;;;;;4980335;28;20206;-70
2024/01/10 03:20:28;;;;;;;6.35;4.80;;;33.40;99.90;;;;;;4994839;28;20178;-77
2024/01/10 03:22:55;;;;;;;6.43;4.60;;;33.40;99.90;;;;;;4994822;28;20214;-75
2024/01/10 03:25:23;;;;;;;6.55;4.68;;;33.90;99.90;;;;;;4994665;28;20175;-75
2024/01/10 03:27:51;;;;;;;10.23;5.10;;;34.60;99.90;;;;;;4990856;28;20222;-75
2024/01/10 03:30:19;;;;;;;7.28;4.65;;;34.60;99.90;;;;;;4975203;28;20206;-69
2024/01/10 03:32:47;;;;;;;5.93;4.40;;;34.60;99.90;;;;;;4984711;28;20182;-76
2024/01/10 03:35:15;;;;;;;6.80;5.03;;;34.90;99.90;;;;;;4994387;28;20262;-76
2024/01/10 03:37:42;;;;;;;7.57;5.22;;;35.00;99.90;;;;;;4994398;28;20305;-69
2024/01/10 03:40:10;;;;;;;5.95;4.80;;;35.10;99.90;;;;;;4975411;28;20179;-76
2024/01/10 03:42:38;;;;;;;6.68;4.93;;;35.10;99.90;;;;;;4975237;28;20330;-76
2024/01/10 03:45:07;;;;;;;7.97;5.43;;;35.40;99.90;;;;;;4974829;28;20314;-73
2024/01/10 03:47:34;;;;;;;11.18;6.43;;;35.40;99.90;;;;;;4974980;28;20850;-74
2024/01/10 03:50:02;;;;;;;7.68;5.18;;;35.60;99.90;;;;;;4975958;28;20550;-76
2024/01/10 03:52:30;;;;;;;7.88;4.35;;;36.10;99.90;;;;;;4974873;28;20197;-71
2024/01/10 03:54:58;;;;;;;8.45;4.50;;;36.10;99.90;;;;;;4974857;28;20203;-74
2024/01/10 03:57:25;;;;;;;9.27;6.05;;;35.80;99.90;;;;;;4975002;28;20288;-76
2024/01/10 03:59:53;;;;;;;8.57;5.43;;;35.40;99.90;;;;;;4974740;28;20179;-76
2024/01/10 04:02:21;;;;;;;7.35;4.53;;;35.40;99.90;;;;;;4974761;28;20183;-75
2024/01/10 04:04:50;;;;;;;6.78;5.10;;;35.80;99.90;;;;;;4974595;28;20179;-73
2024/01/10 04:07:17;;;;;;;9.52;5.07;;;35.90;99.90;;;;;;4992661;28;20190;-74
2024/01/10 04:09:45;;;;;;;8.43;5.22;;;35.40;99.90;;;;;;4977284;28;20237;-76
2024/01/10 04:12:13;;;;;;;11.05;5.80;;;34.50;99.90;;;;;;4989620;28;20208;-75
2024/01/10 04:14:40;;;;;;;7.70;5.45;;;34.10;99.90;;;;;;4995355;28;20171;-73
2024/01/10 04:17:09;;;;;;;6.20;5.18;;;34.20;99.90;;;;;;4995623;28;20229;-75
2024/01/10 04:19:36;;;;;;;9.18;5.47;;;34.00;99.90;;;;;;4978553;28;20194;-74
2024/01/10 04:22:04;;;;;;;10.50;6.25;;;33.80;99.90;;;;;;4975649;28;20539;-74
2024/01/10 04:24:32;;;;;;;9.75;5.68;;;34.00;99.90;;;;;;4958729;28;20181;-74
2024/01/10 04:26:59;;;;;;;8.80;6.18;;;33.70;99.90;;;;;;4981523;28;20761;-75
2024/01/10 04:29:27;;;;;;;7.95;6.15;;;33.60;99.90;;;;;;4990432;28;20690;-75
2024/01/10 04:31:55;;;;;;;9.68;6.43;;;33.30;99.90;;;;;;4994848;28;20187;-74
2024/01/10 04:34:24;;;;;;;10.25;6.10;;;32.90;99.90;;;;;;4985642;28;20211;-75
2024/01/10 04:36:52;;;;;;;14.27;6.95;;;32.80;99.90;;;;;;4991427;28;20304;-75
2024/01/10 04:39:23;;;;;;;10.52;7.43;;;32.70;99.90;;;;;;4959157;28;20207;-72
2024/01/10 04:41:51;;;;;;;11.27;7.65;;;32.60;99.90;;;;;;4978881;28;20186;-75
2024/01/10 04:44:19;;;;;;;15.77;6.85;;;32.60;99.90;;;;;;4983471;28;20699;-77
2024/01/10 04:46:47;;;;;;;8.70;6.97;;;32.60;99.90;;;;;;4993119;28;20645;-69
2024/01/10 04:49:14;;;;;;;11.95;7.13;;;32.50;99.90;;;;;;4976321;28;20175;-74
2024/01/10 04:51:42;;;;;;;10.82;7.05;;;32.50;99.90;;;;;;4974805;28;20187;-75
2024/01/10 04:54:11;;;;;;;8.95;6.70;;;32.50;99.90;;;;;;4973809;28;20218;-76
2024/01/10 04:56:39;;;;;;;11.43;7.20;;;32.50;99.90;;;;;;4973484;28;20592;-73
2024/01/10 04:59:07;;;;;;;10.20;7.40;;;32.30;99.90;;;;;;4974672;28;20183;-71
2024/01/10 05:01:36;;;;;;;13.75;7.22;;;31.90;99.90;;;;;;4978338;28;20536;-74
2024/01/10 05:04:04;;;;;;;11.45;6.97;;;31.80;99.90;;;;;;4992984;28;20187;-73
2024/01/10 05:06:32;;;;;;;10.35;6.63;;;31.80;99.90;;;;;;4992758;28;20186;-74
2024/01/10 05:08:59;;;;;;;14.18;6.22;;;31.80;99.90;;;;;;4979145;28;20661;-72
2024/01/10 05:11:27;;;;;;;11.15;7.03;;;31.70;99.90;;;;;;4976887;28;20293;-74
2024/01/10 05:13:55;;;;;;;10.95;6.82;;;31.60;99.90;;;;;;4992797;28;20230;-75
2024/01/10 05:16:23;;;;;;;11.82;6.95;;;31.30;99.90;;;;;;4992583;28;20284;-72
2024/01/10 05:18:50;;;;;;;14.40;6.32;;;31.30;99.90;;;;;;4992675;28;20418;-74
2024/01/10 05:21:18;;;;;;;13.80;6.13;;;31.00;99.90;;;;;;4992020;28;20270;-69
2024/01/10 05:23:46;;;;;;;10.35;5.68;;;31.00;99.90;;;;;;4992773;28;20183;-72
2024/01/10 05:26:14;;;;;;;8.15;6.25;;;31.00;99.90;;;;;;4991252;28;20186;-74
2024/01/10 05:28:42;;;;;;;12.97;5.97;;;30.90;99.90;;;;;;4972951;28;20195;-72
2024/01/10 05:31:09;;;;;;;11.45;6.45;;;31.00;99.90;;;;;;4973152;28;20223;-76
2024/01/10 05:33:37;;;;;;;8.50;5.13;;;31.10;99.90;;;;;;4988064;28;20240;-75
2024/01/10 05:36:05;;;;;;;11.52;5.70;;;31.30;99.90;;;;;;4991605;28;20256;-72
2024/01/10 05:38:33;;;;;;;11.35;5.55;;;31.50;99.90;;;;;;4992357;28;20179;-75
2024/01/10 05:41:01;;;;;;;8.73;5.03;;;31.60;99.90;;;;;;4992275;28;20167;-74
2024/01/10 05:43:31;;;;;;;7.15;5.05;;;31.80;99.90;;;;;;4979182;28;20591;-73
2024/01/10 05:46:00;;;;;;;9.68;4.90;;;31.80;99.90;;;;;;4973009;28;20174;-74
2024/01/10 05:48:27;;;;;;;9.57;5.32;;;31.40;99.90;;;;;;4977771;28;20186;-73
2024/01/10 05:50:55;;;;;;;7.32;4.75;;;31.30;99.90;;;;;;4992006;28;20182;-73
2024/01/10 05:53:24;;;;;;;7.03;4.68;;;31.40;99.90;;;;;;4980007;28;20176;-73
2024/01/10 05:55:52;;;;;;;11.70;4.30;;;31.40;99.90;;;;;;4972786;28;20183;-74
2024/01/10 05:58:20;;;;;;;9.35;5.18;;;31.20;99.90;;;;;;4972752;28;20187;-72
2024/01/10 06:00:47;;;;;;;6.83;5.07;;;31.20;99.90;;;;;;4972716;28;20172;-74
2024/01/10 06:03:15;;;;;;;8.30;5.10;;;31.10;99.90;;;;;;4982777;28;20280;-73
2024/01/10 06:05:42;;;;;;;10.98;5.40;;;31.20;99.90;;;;;;4992153;28;20233;-74
2024/01/10 06:08:09;;;;;;;9.13;5.03;;;31.70;99.90;;;;;;4991795;28;20267;-71
2024/01/10 06:10:37;;;;;;;7.57;5.25;;;32.10;99.90;;;;;;4990856;28;20193;-73
2024/01/10 06:13:04;;;;;;;8.05;5.22;;;32.50;99.90;;;;;;4982956;28;20353;-73
2024/01/10 06:15:32;;;;;;;8.65;5.38;;;32.80;99.90;;;;;;4972504;28;20200;-73
2024/01/10 06:17:59;;;;;;;11.60;5.30;;;32.70;99.90;;;;;;4972466;28;20211;-76
2024/01/10 06:20:26;;;;;;;10.15;5.80;;;32.20;99.90;;;;;;4976078;28;20580;-74
2024/01/10 06:22:54;;;;;;;8.18;5.20;;;32.20;99.90;;;;;;4984585;28;20199;-69
2024/01/10 06:25:21;;;;;;;10.48;5.32;;;32.30;99.90;;;;;;4972328;28;20704;-74
2024/01/10 06:27:49;;;;;;;10.23;6.10;;;32.20;99.90;;;;;;4972539;28;20665;-70
2024/01/10 06:30:16;;;;;;;6.25;5.22;;;31.90;99.90;;;;;;4972481;28;20210;-73
2024/01/10 06:32:45;;;;;;;7.68;5.53;;;31.80;99.90;;;;;;4984172;28;20202;-76
2024/01/10 06:35:12;;;;;;;9.32;5.65;;;31.70;99.90;;;;;;4972559;28;21005;-74
2024/01/10 06:37:39;;;;;;;9.00;5.63;;;31.40;99.90;;;;;;4972479;28;20316;-76
2024/01/10 06:40:08;;;;;;;12.80;6.03;;;31.30;99.90;;;;;;4972468;28;20186;-76
2024/01/10 06:42:37;;;;;;;7.78;5.28;;;31.40;99.90;;;;;;4972861;28;20278;-73
2024/01/10 06:45:07;;;;;;;8.77;5.45;;;31.50;99.90;;;;;;4972207;28;20234;-73
2024/01/10 06:47:35;;;;;;;9.80;5.05;;;31.90;99.90;;;;;;4973182;28;20187;-72
2024/01/10 06:50:05;;;;;;;9.90;5.20;;;32.10;99.90;;;;;;4992514;28;20214;-78
2024/01/10 06:52:33;;;;;;;8.77;5.18;;;32.10;99.90;;;;;;4987615;28;20278;-72
2024/01/10 06:55:00;;;;;;;8.43;5.05;;;32.10;99.90;;;;;;4975918;28;20190;-77
2024/01/10 06:57:27;;;;;;;8.77;5.50;;;31.80;99.90;;;;;;4975766;28;20215;-76
2024/01/10 06:59:55;;;;;;;10.30;5.78;;;31.60;99.90;;;;;;4975807;28;20186;-75
2024/01/10 07:02:23;;;;;;;8.77;5.57;;;31.40;99.90;;;;;;4981405;28;20202;-76
2024/01/10 07:04:50;;;;;;;8.75;4.97;;;31.40;99.90;;;;;;4995423;28;20189;-74
2024/01/10 07:07:17;;;;;;;9.25;5.20;;;31.30;99.90;;;;;;4994902;28;20190;-71
2024/01/10 07:09:45;;;;;;;6.13;4.85;;;31.30;99.90;;;;;;4995342;28;20640;-73
2024/01/10 07:12:12;;;;;;;10.25;4.95;;;31.30;99.90;;;;;;4978553;28;20195;-75
2024/01/10 07:14:40;;;;;;;8.00;4.60;;;31.50;99.90;;;;;;4983190;28;20265;-76
2024/01/10 07:17:08;;;;;;;9.27;5.70;;;31.70;99.90;;;;;;4994973;28;20231;-76
2024/01/10 07:19:35;;;;;;;5.50;4.80;;;31.80;99.90;;;;;;4994967;28;20189;-75
2024/01/10 07:22:03;;;;;;;11.73;4.95;;;31.90;99.90;;;;;;4991964;28;20257;-76
2024/01/10 07:24:30;;;;;;;9.63;4.70;;;31.90;99.90;;;;;;4975320;28;20266;-75
2024/01/10 07:26:59;;;;;;;6.60;4.75;;;32.10;99.90;;;;;;4980588;28;20182;-75
2024/01/10 07:29:26;;;;;;;6.53;4.28;;;31.90;99.90;;;;;;4994381;28;20206;-74
2024/01/10 07:31:54;;;;;;;8.32;4.38;;;31.60;99.90;;;;;;4994742;28;20178;-73
2024/01/10 07:34:21;;;;;;;6.93;4.20;;;31.40;99.90;;;;;;4994791;28;20198;-75
2024/01/10 07:36:48;;;;;;;7.78;4.82;;;31.20;99.90;;;;;;4994294;28;20238;-75
2024/01/10 07:39:18;;;;;;;7.33;4.47;;;31.10;99.90;;;;;;4994721;28;20189;-76
2024/01/10 07:41:49;;;;;;;9.95;4.57;;;30.90;99.90;;;;;;4994090;28;20811;-76
2024/01/10 07:44:17;;;;;;;6.83;4.20;;;30.90;99.90;;;;;;4994403;28;20219;-74
2024/01/10 07:46:44;;;;;;;8.18;4.35;;;30.90;99.90;;;;;;4993890;28;20201;-75
2024/01/10 07:49:11;;;;;;;7.28;4.30;;;30.90;99.90;;;;;;4994456;28;20225;-73
2024/01/10 07:51:39;;;;;;;6.45;4.20;;;30.70;99.90;;;;;;4994410;28;20642;-77
2024/01/10 07:54:06;;;;;;;7.93;4.85;;;30.70;99.90;;;;;;4994343;28;20271;-74
2024/01/10 07:56:33;;;;;;;6.55;4.03;;;30.50;99.90;;;;;;4990343;28;20210;-75
2024/01/10 07:59:01;;;;;;;7.03;4.17;;;30.70;99.90;;;;;;4972682;28;20565;-75
2024/01/10 08:01:28;;;;;;;8.10;4.30;;;30.80;99.90;;;;;;4974436;28;20230;-76
2024/01/10 08:03:55;;;;;;;7.50;4.43;;;30.70;99.90;;;;;;4982319;28;20189;-73
2024/01/10 08:06:22;;;;;;;6.57;4.33;;;30.40;99.90;;;;;;4992640;28;20193;-73
2024/01/10 08:08:50;;;;;;;7.70;3.40;;;30.20;99.90;;;;;;4993982;28;20186;-73
2024/01/10 08:11:17;;;;;;;5.10;3.40;;;30.00;99.90;;;;;;4993734;28;20309;-73
2024/01/10 08:13:45;;;;;;;9.57;3.83;;;29.80;99.90;;;;;;4993840;28;20174;-74
2024/01/10 08:16:12;;;;;;;4.03;3.63;;;29.70;99.90;;;;;;4993955;28;20748;-67
2024/01/10 08:18:39;;;;;;;8.10;3.80;;;29.40;99.90;;;;;;4993984;28;20210;-73
2024/01/10 08:21:06;;;;;;;7.90;4.23;;;29.40;99.90;;;;;;4993684;28;20198;-68
2024/01/10 08:23:34;;;;;;;10.27;4.63;;;29.50;99.90;;;;;;4992030;28;20198;-72
2024/01/10 08:26:01;;;;;;;9.47;4.57;;;29.60;99.90;;;;;;4981047;28;20639;-71
2024/01/10 08:28:29;;;;;;;8.23;4.10;;;29.50;99.90;;;;;;4974249;28;20175;-68
2024/01/10 08:30:56;;;;;;;6.33;3.87;;;29.30;99.90;;;;;;4974396;28;20307;-71
2024/01/10 08:33:23;;;;;;;8.07;4.47;;;29.20;99.90;;;;;;4974119;28;20235;-72
2024/01/10 08:35:51;;;;;;;13.00;4.23;;;29.00;99.90;;;;;;4974368;28;20531;-70
2024/01/10 08:38:18;;;;;;;6.80;3.60;;;28.70;99.90;;;;;;4975655;28;20219;-74
2024/01/10 08:40:45;;;;;;;7.27;4.20;;;28.60;99.90;;;;;;4975489;28;20183;-72
2024/01/10 08:43:13;;;;;;;9.20;4.47;;;28.50;99.90;;;;;;4975259;28;20230;-71
2024/01/10 08:45:40;;;;;;;8.13;4.20;;;28.50;99.90;;;;;;4975685;28;20183;-73
2024/01/10 08:48:12;;;;;;;5.10;3.63;;;28.40;99.90;;;;;;4975659;28;20274;-72
2024/01/10 08:54:02;;;;;;;5.57;3.77;;;28.10;99.90;;;;;;4974771;28;20197;-72
2024/01/10 08:56:29;;;;;;;9.40;4.13;;;28.00;99.90;;;;;;4974805;28;20665;-69
2024/01/10 08:58:56;;;;;;;7.27;3.87;;;27.90;99.90;;;;;;4972146;28;20206;-74
2024/01/10 09:01:24;;;;;;;6.90;3.53;;;27.80;99.90;;;;;;4975213;28;20188;-73
2024/01/10 09:03:53;;;;;;;5.37;3.43;;;27.70;99.90;;;;;;4975387;28;20180;-73
2024/01/10 09:06:20;;;;;;;6.77;3.90;;;27.70;99.90;;;;;;4975375;28;20182;-74
2024/01/10 09:08:48;;;;;;;7.97;4.27;;;27.60;99.90;;;;;;4975073;28;20205;-74
2024/01/10 09:11:15;;;;;;;6.07;3.70;;;27.50;99.90;;;;;;4974922;28;20179;-71
2024/01/10 09:13:43;;;;;;;5.63;4.13;;;27.40;99.90;;;;;;4974843;28;20182;-72
2024/01/10 09:16:14;;;;;;;5.47;3.80;;;27.20;99.90;;;;;;4976313;28;20175;-67
2024/01/10 09:18:41;;;;;;;7.07;3.90;;;27.20;99.90;;;;;;4981587;28;20178;-74
2024/01/10 09:21:09;;;;;;;6.67;4.30;;;27.20;99.90;;;;;;4976395;28;20183;-70
2024/01/10 09:23:39;;;;;;;6.03;4.30;;;27.10;99.90;;;;;;4975556;28;20171;-70
2024/01/10 09:26:09;;;;;;;6.83;4.20;;;27.10;99.90;;;;;;4975034;28;20183;-72
2024/01/10 09:29:22;;;;;;;7.03;3.87;;;27.10;99.90;;;;;;4974468;28;20241;-71
2024/01/10 09:31:49;;;;;;;3.97;3.50;;;27.00;99.90;;;;;;4974962;28;20191;-73
2024/01/10 09:34:17;;;;;;;5.50;3.80;;;27.00;99.90;;;;;;4974720;28;20183;-73
2024/01/10 09:36:44;;;;;;;9.03;3.60;;;27.00;99.90;;;;;;4973288;28;20222;-72
2024/01/10 09:39:13;;;;;;;8.80;4.50;;;27.00;99.90;;;;;;4974744;28;20665;-73
2024/01/10 09:41:50;;;;;;;5.00;3.57;;;26.90;99.90;;;;;;4974782;28;20194;-73
2024/01/10 09:44:18;;;;;;;7.20;3.53;;;26.90;99.90;;;;;;4974243;28;20352;-73
2024/01/10 09:46:55;;;;;;;9.37;4.43;;;26.90;99.90;;;;;;4974694;28;20590;-73
2024/01/10 09:49:23;;;;;;;6.60;4.53;;;26.90;99.90;;;;;;4974914;28;20186;-73
2024/01/10 09:51:53;;;;;;;6.60;3.80;;;27.00;99.90;;;;;;4974845;28;20183;-72
2024/01/10 09:54:24;;;;;;;6.83;4.07;;;26.90;99.90;;;;;;4974673;28;20214;-70
2024/01/10 09:56:53;;;;;;;8.47;4.60;;;26.90;99.90;;;;;;4953937;28;20199;-72
2024/01/10 09:59:20;;;;;;;4.40;3.97;;;26.90;99.90;;;;;;4972719;28;20566;-71
2024/01/10 10:01:47;;;;;;;7.07;4.47;;;26.80;99.90;;;;;;4972875;28;20190;-69
2024/01/10 10:04:18;;;;;;;9.63;4.27;;;26.80;99.90;;;;;;4972796;28;20230;-70
2024/01/10 10:06:45;;;;;;;8.27;5.33;;;26.80;99.90;;;;;;4972754;28;20665;-69
2024/01/10 10:09:14;;;;;;;7.00;4.47;;;26.80;99.90;;;;;;4973957;28;20626;-73
2024/01/10 10:11:42;;;;;;;10.50;4.90;;;26.80;99.90;;;;;;4973697;28;20609;-70
2024/01/10 10:14:19;;;;;;;8.30;4.90;;;26.70;99.90;;;;;;4973786;28;20175;-72
2024/01/10 10:16:47;;;;;;;7.23;4.63;;;26.70;99.90;;;;;;4973514;28;20207;-72
2024/01/10 10:19:26;;;;;;;7.50;4.93;;;26.60;99.90;;;;;;4974284;28;20175;-72
2024/01/10 10:21:54;;;;;;;10.13;6.00;;;26.60;99.90;;;;;;4973186;28;20174;-72
2024/01/10 10:24:21;;;;;;;11.03;5.23;;;26.50;99.90;;;;;;4978083;28;20186;-72
2024/01/10 10:26:49;;;;;;;8.50;5.33;;;26.50;99.90;;;;;;4977849;28;20190;-72
2024/01/10 10:29:19;;;;;;;6.23;5.20;;;26.40;99.90;;;;;;4975793;28;20225;-71
2024/01/10 10:31:49;;;;;;;6.50;5.40;;;26.30;99.90;;;;;;4975636;28;20179;-71
2024/01/10 10:34:22;;;;;;;9.03;5.10;;;26.30;99.90;;;;;;4975692;28;20186;-72
2024/01/10 10:36:50;;;;;;;10.07;5.60;;;26.20;99.90;;;;;;4975492;28;20211;-71
2024/01/10 10:39:20;;;;;;;11.70;6.20;;;26.20;99.90;;;;;;4975879;28;20183;-72
2024/01/10 10:41:50;;;;;;;8.17;4.90;;;26.20;99.90;;;;;;4976526;28;20190;-71
2024/01/10 10:44:21;;;;;;;9.63;5.00;;;26.10;99.90;;;;;;4977733;28;20684;-70
2024/01/10 10:46:56;;;;;;;9.57;5.00;;;26.00;99.90;;;;;;4977663;28;20183;-73
2024/01/10 10:49:31;;;;;;;10.13;5.93;;;26.00;99.90;;;;;;4977547;28;20179;-70
2024/01/10 10:52:00;;;;;;;10.03;4.77;;;25.90;99.90;;;;;;4985185;28;20547;-73
2024/01/10 10:54:32;;;;;;;7.27;4.87;;;25.90;99.90;;;;;;4995327;28;20186;-72
2024/01/10 10:57:02;;;;;;;8.77;5.10;;;25.80;99.90;;;;;;4997122;28;20210;-71
2024/01/10 10:59:32;;;;;;;8.93;4.97;;;25.80;99.90;;;;;;4996551;28;20246;-70
2024/01/10 11:01:59;;;;;;;9.50;4.97;;;25.70;99.90;;;;;;4979797;28;20190;-73
2024/01/10 11:04:27;;;;;;;9.70;5.40;;;25.70;99.90;;;;;;4980839;28;20187;-72
2024/01/10 11:06:54;;;;;;;10.30;4.70;;;25.70;99.90;;;;;;4981976;28;20641;-72
2024/01/10 11:09:23;;;;;;;8.20;5.07;;;25.70;99.90;;;;;;4995794;28;20194;-71
2024/01/10 11:12:21;;;;;;;6.50;5.57;;;25.80;99.90;;;;;;4988351;28;20238;-71
2024/01/10 11:15:12;;;;;;;9.27;5.03;;;25.80;99.90;;;;;;4978283;28;20304;-72
2024/01/10 11:18:13;;;;;;;11.27;5.33;;;25.70;99.90;;;;;;4977194;28;20223;-72
2024/01/10 11:20:51;;;;;;;9.13;5.33;;;25.60;99.90;;;;;;4977282;28;20187;-72
2024/01/10 11:23:37;;;;;;;6.47;4.60;;;25.50;99.90;;;;;;4977364;28;20187;-72
2024/01/10 11:26:04;;;;;;;18.03;11.27;;;25.40;99.90;;;;;;4977169;28;20612;-68
2024/01/10 11:28:33;;;;;;;15.47;10.67;;;25.40;99.90;;;;;;4976975;28;20562;-71
2024/01/10 11:31:00;;;;;;;17.30;9.50;;;25.40;99.90;;;;;;4984199;28;20574;-71
2024/01/10 11:33:51;;;;;;;17.03;8.97;;;25.30;99.90;;;;;;4985615;28;20712;-72
2024/01/10 11:36:24;;;;;;;10.57;5.90;;;25.30;99.90;;;;;;4990583;28;20314;-73
2024/01/10 11:38:58;;;;;;;6.73;5.43;;;25.20;99.90;;;;;;4994839;28;20186;-71
2024/01/10 11:41:30;;;;;;;7.67;5.07;;;25.20;99.90;;;;;;4995727;28;20198;-72
2024/01/10 11:44:13;;;;;;;8.67;5.10;;;25.20;99.90;;;;;;4995737;28;20229;-72
2024/01/10 11:46:42;;;;;;;12.53;5.43;;;25.20;99.90;;;;;;4995862;28;20212;-72
2024/01/10 11:49:17;;;;;;;8.87;5.50;;;25.10;99.90;;;;;;4995248;28;20177;-72
2024/01/10 11:51:49;;;;;;;9.30;5.03;;;25.10;99.90;;;;;;4995724;28;20170;-73
2024/01/10 11:54:41;;;;;;;5.63;4.73;;;25.00;99.90;;;;;;4985077;28;20191;-71
2024/01/10 11:57:09;;;;;;;7.97;4.53;;;25.00;99.90;;;;;;4976478;28;20620;-72
2024/01/10 11:59:38;;;;;;;6.23;4.07;;;25.00;99.90;;;;;;4976524;28;20218;-68
2024/01/10 12:02:05;;;;;;;9.13;4.63;;;25.00;99.90;;;;;;4976184;28;20193;-68
2024/01/10 12:04:36;;;;;;;11.10;5.10;;;25.00;99.90;;;;;;4976129;28;20526;-68
2024/01/10 12:07:07;;;;;;;8.83;4.90;;;25.00;99.90;;;;;;4976077;28;20180;-68
2024/01/10 12:09:37;;;;;;;10.03;4.57;;;25.00;99.90;;;;;;4975947;28;20198;-72
2024/01/10 12:12:06;;;;;;;8.30;4.53;;;25.00;99.90;;;;;;4976161;28;20195;-71
2024/01/10 12:14:35;;;;;;;9.43;4.50;;;25.00;99.90;;;;;;4976152;28;20278;-71
2024/01/10 12:17:04;;;;;;;7.27;4.67;;;25.00;99.90;;;;;;4976032;28;20215;-71
2024/01/10 12:19:31;;;;;;;13.73;4.37;;;24.90;99.90;;;;;;4975756;28;20282;-70
2024/01/10 12:21:59;;;;;;;7.30;4.77;;;24.90;99.90;;;;;;4975794;28;20195;-72
2024/01/10 12:24:31;;;;;;;5.60;4.27;;;24.80;99.90;;;;;;4981010;28;20625;-72
2024/01/10 12:26:58;;;;;;;7.07;4.63;;;24.70;99.90;;;;;;4985754;28;20194;-71
2024/01/10 12:29:26;;;;;;;11.13;4.77;;;24.70;99.90;;;;;;4995201;28;20190;-71
2024/01/10 12:31:54;;;;;;;11.13;4.63;;;24.60;99.90;;;;;;4993009;28;20185;-71
2024/01/10 12:34:22;;;;;;;9.83;4.40;;;24.60;99.90;;;;;;4975872;28;20548;-71
2024/01/10 12:36:49;;;;;;;4.90;3.93;;;24.50;99.90;;;;;;4975826;28;20681;-70
2024/01/10 12:39:17;;;;;;;7.80;4.57;;;24.60;99.90;;;;;;4975662;28;20214;-73
2024/01/10 12:41:45;;;;;;;8.23;4.23;;;24.60;99.90;;;;;;4984740;28;20186;-72
2024/01/10 12:44:13;;;;;;;4.93;4.20;;;24.70;99.90;;;;;;4994710;28;20232;-72
2024/01/10 12:46:51;;;;;;;8.13;4.80;;;24.60;99.90;;;;;;4994294;28;20215;-72
2024/01/10 12:49:19;;;;;;;8.07;4.87;;;24.60;99.90;;;;;;4994288;28;20673;-71
2024/01/10 12:51:48;;;;;;;8.97;5.17;;;24.60;99.90;;;;;;4975037;28;20270;-71
2024/01/10 12:54:19;;;;;;;8.20;5.40;;;24.50;99.90;;;;;;4975422;28;20266;-71
2024/01/10 12:56:46;;;;;;;8.03;4.70;;;24.40;99.90;;;;;;4975419;28;20331;-71
2024/01/10 12:59:13;;;;;;;6.03;3.90;;;24.40;99.90;;;;;;4975396;28;20645;-70
2024/01/10 13:01:41;;;;;;;7.20;4.37;;;24.30;99.90;;;;;;4975050;28;20668;-71
2024/01/10 13:04:09;;;;;;;9.43;4.60;;;24.30;99.90;;;;;;4975189;28;20181;-72
2024/01/10 13:06:36;;;;;;;8.67;4.80;;;24.30;99.90;;;;;;4975083;28;20179;-69
2024/01/10 13:09:06;;;;;;;6.83;4.33;;;24.20;99.90;;;;;;4975048;28;20183;-72
2024/01/10 13:11:33;;;;;;;7.73;4.63;;;24.10;99.90;;;;;;4983712;28;20241;-71
2024/01/10 13:14:00;;;;;;;7.97;4.63;;;24.10;99.90;;;;;;4977205;28;20194;-71
2024/01/10 13:16:27;;;;;;;5.27;4.27;;;24.10;99.90;;;;;;4974918;28;20215;-72